Time;durP1;ratioP1;P1;durP2;ratioP2;P2;SDS_P1;SDS_P2;PMS_P1;PMS_P2;Temp;Humidity;BMP_temperature;BMP_pressure;BME280_temperature;BME280_humidity;BME280_pressure;Samples;Min_cycle;Max_cycle;Signal;HPM_P1;HPM_P2
2022/10/01 00:03:19;;;;;;;17.33;8.73;;;;;9.00;96035.00;;;;8344610;28;20232;-70
2022/10/01 00:07:22;;;;;;;15.87;8.37;;;;;9.00;96029.00;;;;8343137;28;20243;-71
2022/10/01 00:11:27;;;;;;;16.63;8.53;;;;;9.00;96029.00;;;;8328689;28;20232;-72
2022/10/01 00:15:31;;;;;;;11.97;7.50;;;;;9.10;96026.00;;;;8334527;28;20233;-71
2022/10/01 00:19:34;;;;;;;18.80;8.35;;;;;9.10;96035.00;;;;8341138;28;20449;-71
2022/10/01 00:23:38;;;;;;;13.73;7.80;;;;;9.00;96039.00;;;;8338285;28;20228;-71
2022/10/01 00:27:45;;;;;;;13.03;7.87;;;;;9.00;96040.00;;;;8342586;28;20279;-70
2022/10/01 00:31:50;;;;;;;14.50;7.50;;;;;8.80;96037.00;;;;8347044;28;20220;-71
2022/10/01 00:35:54;;;;;;;14.23;8.53;;;;;8.60;96032.00;;;;8340745;28;20220;-70
2022/10/01 00:39:57;;;;;;;14.57;7.77;;;;;8.50;96028.00;;;;8347571;28;20251;-71
2022/10/01 00:44:02;;;;;;;13.47;6.93;;;;;8.30;96039.00;;;;8344444;28;20232;-71
2022/10/01 00:48:06;;;;;;;12.20;7.07;;;;;8.20;96040.00;;;;8339016;28;20893;-70
2022/10/01 00:52:14;;;;;;;14.10;7.70;;;;;8.00;96025.00;;;;8342605;28;20225;-69
2022/10/01 00:56:18;;;;;;;15.40;8.03;;;;;7.90;96035.00;;;;8338854;28;20229;-69
2022/10/01 01:00:22;;;;;;;16.80;7.90;;;;;7.70;96040.00;;;;8337427;28;20233;-70
2022/10/01 01:04:27;;;;;;;15.77;7.67;;;;;7.50;96035.00;;;;8342716;28;20602;-69
2022/10/01 01:08:31;;;;;;;15.50;7.93;;;;;7.40;96033.00;;;;8343682;28;20236;-70
2022/10/01 01:12:53;;;;;;;16.33;7.93;;;;;7.30;96025.00;;;;8348127;28;20255;-70
2022/10/01 01:16:59;;;;;;;14.50;7.70;;;;;7.20;96031.00;;;;8332357;28;20240;-69
2022/10/01 01:21:29;;;;;;;15.23;8.00;;;;;7.00;96025.00;;;;8343289;28;20291;-70
2022/10/01 01:25:39;;;;;;;14.33;7.70;;;;;7.00;96023.00;;;;8342349;28;20629;-70
2022/10/01 01:29:51;;;;;;;21.90;8.60;;;;;6.90;96025.00;;;;8345527;28;20228;-70
2022/10/01 01:33:56;;;;;;;19.73;9.40;;;;;6.80;96016.00;;;;8332303;28;20233;-69
2022/10/01 01:38:03;;;;;;;19.43;8.93;;;;;6.70;96010.00;;;;8336538;28;20830;-69
2022/10/01 01:42:11;;;;;;;18.17;8.20;;;;;6.70;96015.00;;;;8332883;28;20233;-69
2022/10/01 01:46:19;;;;;;;19.60;9.00;;;;;6.60;96004.00;;;;8340813;28;20216;-69
2022/10/01 01:50:25;;;;;;;26.17;10.87;;;;;6.50;96004.00;;;;8362296;28;20255;-69
2022/10/01 01:54:58;;;;;;;39.90;11.57;;;;;6.40;95995.00;;;;8361684;28;20236;-69
2022/10/01 01:59:03;;;;;;;35.87;13.60;;;;;6.30;95995.00;;;;8361740;28;20558;-69
2022/10/01 02:08:36;;;;;;;33.27;11.27;;;;;6.20;95998.00;;;;8360638;28;20238;-68
2022/10/01 02:13:19;;;;;;;35.67;12.87;;;;;6.10;95990.00;;;;8361587;28;20311;-68
2022/10/01 02:17:32;;;;;;;23.67;10.70;;;;;6.00;95990.00;;;;8361766;28;20227;-67
2022/10/01 02:21:41;;;;;;;26.00;10.93;;;;;6.00;95985.00;;;;8360906;28;20228;-67
2022/10/01 02:25:49;;;;;;;35.03;13.70;;;;;6.00;95990.00;;;;8361969;28;20676;-67
2022/10/01 02:29:55;;;;;;;25.47;10.83;;;;;5.90;95993.00;;;;8361091;28;20532;-68
2022/10/01 02:34:30;;;;;;;64.00;13.37;;;;;5.80;95986.00;;;;8361611;28;20243;-68
2022/10/01 02:38:34;;;;;;;38.43;14.37;;;;;5.80;95978.00;;;;8357592;28;20318;-68
2022/10/01 02:42:40;;;;;;;29.87;13.57;;;;;5.80;95978.00;;;;8361221;28;20235;-67
2022/10/01 02:47:16;;;;;;;30.97;12.60;;;;;5.80;95978.00;;;;8360705;28;20220;-68
2022/10/01 02:51:28;;;;;;;42.53;13.33;;;;;5.80;95981.00;;;;8361357;28;20220;-68
2022/10/01 02:55:36;;;;;;;35.53;13.80;;;;;5.80;95977.00;;;;8360995;28;20653;-68
2022/10/01 02:59:41;;;;;;;33.93;13.13;;;;;5.80;95985.00;;;;8361161;28;20535;-68
2022/10/01 03:03:44;;;;;;;40.13;13.43;;;;;5.80;95975.00;;;;8382358;28;20649;-68
2022/10/01 03:08:21;;;;;;;36.40;13.57;;;;;5.80;95960.00;;;;8394112;28;20750;-68
2022/10/01 03:12:24;;;;;;;50.93;14.40;;;;;5.80;95970.00;;;;8393235;28;20615;-68
2022/10/01 03:16:28;;;;;;;40.37;14.73;;;;;5.80;95965.00;;;;8394450;28;20228;-67
2022/10/01 03:21:02;;;;;;;56.80;16.53;;;;;5.70;95962.00;;;;8395348;28;20222;-67
2022/10/01 03:25:06;;;;;;;60.73;15.80;;;;;5.70;95967.00;;;;8400262;28;20227;-67
2022/10/01 03:29:10;;;;;;;44.53;16.03;;;;;5.70;95973.00;;;;8400165;28;20722;-68
2022/10/01 03:33:14;;;;;;;49.60;16.37;;;;;5.80;95964.00;;;;8399642;28;20219;-68
2022/10/01 03:37:48;;;;;;;55.80;17.80;;;;;5.80;95964.00;;;;8399595;28;20233;-69
2022/10/01 03:41:51;;;;;;;51.10;15.67;;;;;5.70;95940.00;;;;8398778;28;20697;-69
2022/10/01 03:46:11;;;;;;;72.10;18.03;;;;;5.70;95935.00;;;;8399412;28;20340;-69
2022/10/01 03:50:16;;;;;;;49.90;16.90;;;;;5.70;95927.00;;;;8398783;28;20227;-69
2022/10/01 03:54:50;;;;;;;62.63;17.23;;;;;5.60;95936.00;;;;8399020;28;20238;-69
2022/10/01 03:58:53;;;;;;;80.23;18.63;;;;;5.70;95933.00;;;;8394399;28;20593;-69
2022/10/01 04:02:56;;;;;;;153.90;22.13;;;;;5.60;95932.00;;;;8398974;28;20244;-69
2022/10/01 04:07:34;;;;;;;96.57;19.97;;;;;5.60;95927.00;;;;8393210;28;20237;-69
2022/10/01 04:11:38;;;;;;;73.37;19.40;;;;;5.70;95921.00;;;;8398331;28;20242;-68
2022/10/01 04:15:41;;;;;;;101.00;22.00;;;;;5.80;95926.00;;;;8398470;28;20691;-68
2022/10/01 04:20:15;;;;;;;84.27;20.60;;;;;5.80;95925.00;;;;8398162;28;20220;-68
2022/10/01 04:24:21;;;;;;;101.97;22.20;;;;;5.80;95926.00;;;;8397870;28;20216;-68
2022/10/01 04:28:24;;;;;;;100.70;22.87;;;;;5.90;95923.00;;;;8398316;28;20228;-68
2022/10/01 04:32:27;;;;;;;77.50;20.23;;;;;6.00;95919.00;;;;8396027;28;20231;-69
2022/10/01 04:36:30;;;;;;;102.07;21.63;;;;;6.00;95918.00;;;;8398047;28;20235;-68
2022/10/01 04:41:08;;;;;;;93.50;21.80;;;;;6.00;95912.00;;;;8397576;28;20230;-68
2022/10/01 04:45:12;;;;;;;145.57;28.07;;;;;6.10;95918.00;;;;8397216;28;20220;-68
2022/10/01 04:49:15;;;;;;;167.80;29.33;;;;;6.30;95922.00;;;;8396961;28;20228;-69
2022/10/01 04:53:52;;;;;;;152.70;28.70;;;;;6.50;95922.00;;;;8397750;28;20664;-68
2022/10/01 04:57:56;;;;;;;180.47;32.80;;;;;6.70;95926.00;;;;8396688;28;20261;-68
2022/10/01 05:01:59;;;;;;;178.67;33.97;;;;;7.10;95921.00;;;;8396955;28;20231;-68
2022/10/01 05:06:02;;;;;;;191.23;35.07;;;;;7.40;95940.00;;;;8388371;28;20306;-69
2022/10/01 05:10:39;;;;;;;188.80;32.20;;;;;7.70;95939.00;;;;8397092;28;20577;-69
2022/10/01 05:14:45;;;;;;;146.63;28.33;;;;;7.90;95934.00;;;;8396672;28;20223;-70
2022/10/01 05:18:48;;;;;;;127.57;27.63;;;;;8.00;95940.00;;;;8396246;28;20238;-70
2022/10/01 05:23:25;;;;;;;157.83;30.87;;;;;8.10;95946.00;;;;8395667;28;20544;-69
2022/10/01 05:28:04;;;;;;;151.53;29.40;;;;;8.30;95935.00;;;;8394535;28;20672;-69
2022/10/01 05:32:11;;;;;;;133.43;29.17;;;;;8.40;95934.00;;;;8395847;28;20534;-69
2022/10/01 05:36:17;;;;;;;141.03;27.50;;;;;8.60;95928.00;;;;8395625;28;20534;-68
2022/10/01 05:40:27;;;;;;;134.97;29.50;;;;;8.80;95933.00;;;;8395759;28;20273;-69
2022/10/01 05:45:00;;;;;;;136.57;28.90;;;;;8.80;95930.00;;;;8394975;28;20223;-70
2022/10/01 05:49:38;;;;;;;127.93;26.73;;;;;9.00;95938.00;;;;8395178;28;20223;-69
2022/10/01 05:54:12;;;;;;;117.97;27.85;;;;;9.10;95944.00;;;;8393915;28;20706;-70
2022/10/01 05:58:47;;;;;;;114.43;26.37;;;;;9.20;95950.00;;;;8394930;28;20239;-70
2022/10/01 06:02:51;;;;;;;117.83;27.30;;;;;9.30;95954.00;;;;8393961;28;20234;-69
2022/10/01 06:07:25;;;;;;;116.50;27.40;;;;;9.40;95950.00;;;;8393997;28;20223;-69
2022/10/01 06:12:04;;;;;;;106.33;26.20;;;;;9.50;95948.00;;;;8394004;28;20231;-69
2022/10/01 06:16:38;;;;;;;107.03;26.17;;;;;9.60;95947.00;;;;8394055;28;20649;-70
2022/10/01 06:21:14;;;;;;;106.07;27.63;;;;;9.70;95945.00;;;;8394288;28;20262;-69
2022/10/01 06:25:51;;;;;;;104.40;26.73;;;;;9.80;95954.00;;;;8392675;28;20224;-69
2022/10/01 06:30:31;;;;;;;115.47;26.60;;;;;9.80;95952.00;;;;8392260;28;20228;-67
2022/10/01 06:34:46;;;;;;;98.13;25.50;;;;;9.90;95947.00;;;;8392158;28;20216;-67
2022/10/01 06:39:23;;;;;;;102.93;27.57;;;;;10.00;95949.00;;;;8393547;28;20222;-68
2022/10/01 06:43:48;;;;;;;85.40;23.85;;;;;10.20;95944.00;;;;8386767;28;20208;-67
2022/10/01 06:48:23;;;;;;;89.57;23.55;;;;;10.40;95950.00;;;;8393309;28;20245;-67
2022/10/01 06:52:58;;;;;;;88.47;23.23;;;;;10.50;95943.00;;;;8392436;28;20220;-67
2022/10/01 06:57:34;;;;;;;88.73;23.53;;;;;10.60;95946.00;;;;8398363;28;20245;-67
2022/10/01 07:02:19;;;;;;;71.75;21.50;;;;;10.70;95943.00;;;;8395706;28;20286;-68
2022/10/01 07:06:49;;;;;;;65.47;21.65;;;;;10.80;95937.00;;;;8365771;28;20304;-69
2022/10/01 07:11:26;;;;;;;69.38;21.55;;;;;10.90;95941.00;;;;8364247;28;20616;-70
2022/10/01 07:16:02;;;;;;;58.42;20.65;;;;;11.00;95936.00;;;;8365027;28;20221;-70
2022/10/01 07:20:06;;;;;;;53.88;20.35;;;;;11.00;95930.00;;;;8364862;28;20778;-70
2022/10/01 07:24:11;;;;;;;61.17;21.43;;;;;11.10;95931.00;;;;8364427;28;20244;-70
2022/10/01 07:28:45;;;;;;;52.20;20.52;;;;;11.00;95938.00;;;;8365644;28;20312;-70
2022/10/01 07:33:23;;;;;;;57.20;20.80;;;;;11.10;95939.00;;;;8364168;28;20254;-69
2022/10/01 07:37:26;;;;;;;51.72;20.13;;;;;11.20;95932.00;;;;8365231;28;20213;-71
2022/10/01 07:41:31;;;;;;;190.55;80.22;;;;;11.40;95928.00;;;;8364262;28;20220;-71
2022/10/01 07:46:06;;;;;;;54.45;25.17;;;;;11.50;95929.00;;;;8364477;28;20292;-70
2022/10/01 07:50:40;;;;;;;103.05;34.92;;;;;11.70;95919.00;;;;8363823;28;20238;-70
2022/10/01 07:55:17;;;;;;;225.88;68.05;;;;;11.80;95927.00;;;;8365207;28;20221;-71
2022/10/01 07:59:56;;;;;;;55.90;26.13;;;;;12.10;95922.00;;;;8364417;28;20645;-72
2022/10/01 08:03:59;;;;;;;55.72;27.17;;;;;12.30;95928.00;;;;8377274;28;20237;-72
2022/10/01 08:08:05;;;;;;;96.78;36.95;;;;;12.40;95911.00;;;;8396741;28;20231;-72
2022/10/01 08:12:08;;;;;;;42.20;21.05;;;;;12.60;95911.00;;;;8396524;28;20230;-72
2022/10/01 08:16:14;;;;;;;60.55;32.65;;;;;12.70;95906.00;;;;8397270;28;20603;-71
2022/10/01 08:20:18;;;;;;;35.33;18.92;;;;;12.80;95894.00;;;;8396747;28;20272;-71
2022/10/01 08:24:52;;;;;;;24.38;14.73;;;;;12.90;95891.00;;;;8386006;28;20222;-71
2022/10/01 08:29:27;;;;;;;26.35;13.98;;;;;12.70;95884.00;;;;8396812;28;20591;-71
2022/10/01 08:33:31;;;;;;;25.63;13.07;;;;;12.70;95886.00;;;;8397258;28;20214;-70
2022/10/01 08:38:05;;;;;;;23.48;14.13;;;;;12.60;95891.00;;;;8397304;28;20222;-71
2022/10/01 08:42:18;;;;;;;21.75;13.38;;;;;12.70;95891.00;;;;8396302;28;20214;-71
2022/10/01 08:46:46;;;;;;;136.20;50.30;;;;;12.80;95894.00;;;;8396301;28;20549;-72
2022/10/01 08:51:27;;;;;;;299.52;90.82;;;;;12.80;95896.00;;;;8396605;28;20610;-72
2022/10/01 08:56:00;;;;;;;47.75;21.30;;;;;12.80;95904.00;;;;8395949;28;20312;-73
2022/10/01 09:00:07;;;;;;;134.68;51.30;;;;;12.80;95905.00;;;;8385423;28;20252;-73
2022/10/01 09:04:10;;;;;;;55.38;28.80;;;;;12.80;95920.00;;;;8391172;28;20235;-71
2022/10/01 09:08:51;;;;;;;49.75;28.35;;;;;12.70;95909.00;;;;8395799;28;20223;-73
2022/10/01 09:13:12;;;;;;;36.78;18.67;;;;;12.60;95917.00;;;;8392871;28;20645;-72
2022/10/01 09:17:44;;;;;;;30.98;19.20;;;;;12.60;95923.00;;;;8394329;28;20224;-76
2022/10/01 09:22:12;;;;;;;36.45;18.17;;;;;12.50;95925.00;;;;8396365;28;20615;-76
2022/10/01 09:26:47;;;;;;;46.92;25.10;;;;;12.60;95928.00;;;;8394851;28;20221;-73
2022/10/01 09:31:24;;;;;;;21.77;12.55;;;;;12.70;95927.00;;;;8395148;28;20220;-74
2022/10/01 09:36:02;;;;;;;19.88;12.07;;;;;12.60;95924.00;;;;8395364;28;20234;-74
2022/10/01 09:40:34;;;;;;;17.08;11.15;;;;;12.60;95920.00;;;;8394007;28;20240;-75
2022/10/01 09:44:39;;;;;;;21.13;10.85;;;;;12.60;95918.00;;;;8394556;28;20219;-75
2022/10/01 09:48:49;;;;;;;18.08;11.32;;;;;12.60;95910.00;;;;8395262;28;20280;-74
2022/10/01 09:53:19;;;;;;;20.48;11.55;;;;;12.50;95915.00;;;;8395418;28;20282;-74
2022/10/01 09:57:26;;;;;;;14.68;9.43;;;;;12.60;95912.00;;;;8394629;28;20218;-72
2022/10/01 10:01:43;;;;;;;17.80;9.98;;;;;12.40;95902.00;;;;8395000;28;20280;-72
2022/10/01 10:06:06;;;;;;;20.83;12.18;;;;;12.20;95899.00;;;;8387313;28;20709;-73
2022/10/01 10:10:39;;;;;;;15.57;10.15;;;;;12.10;95895.00;;;;8390227;28;20235;-73
2022/10/01 10:15:16;;;;;;;27.23;13.95;;;;;12.00;95887.00;;;;8391455;28;20648;-71
2022/10/01 10:19:24;;;;;;;19.38;11.60;;;;;11.90;95884.00;;;;8391941;28;20219;-72
2022/10/01 10:23:56;;;;;;;30.40;14.60;;;;;11.80;95869.00;;;;8394134;28;20215;-72
2022/10/01 10:28:01;;;;;;;15.77;9.27;;;;;11.60;95875.00;;;;8393113;28;20219;-74
2022/10/01 10:32:12;;;;;;;16.05;8.90;;;;;11.50;95860.00;;;;8392827;28;20692;-71
2022/10/01 10:36:42;;;;;;;11.13;7.28;;;;;11.40;95850.00;;;;8393808;28;20227;-72
2022/10/01 10:41:18;;;;;;;13.95;9.00;;;;;11.30;95845.00;;;;8393353;28;20238;-72
2022/10/01 10:45:28;;;;;;;15.05;8.95;;;;;11.30;95848.00;;;;8393760;28;20226;-73
2022/10/01 10:49:33;;;;;;;9.57;6.82;;;;;11.40;95840.00;;;;8393832;28;20236;-72
2022/10/01 10:54:07;;;;;;;10.70;5.72;;;;;11.30;95829.00;;;;8393575;28;20219;-71
2022/10/01 10:58:45;;;;;;;8.30;5.00;;;;;11.20;95825.00;;;;8392927;28;20272;-75
2022/10/01 11:03:21;;;;;;;26.52;23.25;;;;;11.20;95821.00;;;;8393300;28;20257;-77
2022/10/01 11:07:58;;;;;;;183.70;110.55;;;;;11.20;95818.00;;;;8392837;28;20217;-74
2022/10/01 11:12:37;;;;;;;24.80;20.40;;;;;11.20;95818.00;;;;8393431;28;20677;-75
2022/10/01 11:17:26;;;;;;;15.05;11.60;;;;;11.20;95816.00;;;;8392654;28;20361;-75
2022/10/01 11:22:02;;;;;;;9.57;6.75;;;;;11.10;95812.00;;;;8392606;28;20209;-74
2022/10/01 11:26:33;;;;;;;78.22;53.03;;;;;11.10;95807.00;;;;8394013;28;20643;-76
2022/10/01 11:31:10;;;;;;;385.17;237.45;;;;;11.10;95812.00;;;;8388921;28;20339;-75
2022/10/01 11:35:50;;;;;;;87.00;54.78;;;;;11.10;95795.00;;;;8390788;28;20225;-74
2022/10/01 11:40:23;;;;;;;30.10;21.95;;;;;11.10;95803.00;;;;8392810;28;20212;-74
2022/10/01 11:44:56;;;;;;;54.80;34.55;;;;;11.10;95789.00;;;;8399386;28;20258;-71
2022/10/01 11:49:41;;;;;;;16.50;12.43;;;;;11.10;95794.00;;;;8398360;28;20472;-73
2022/10/01 11:54:17;;;;;;;82.47;51.45;;;;;11.20;95793.00;;;;8398282;28;20220;-72
2022/10/01 11:58:49;;;;;;;308.15;198.32;;;;;11.20;95787.00;;;;8395481;28;20222;-73
2022/10/01 12:03:23;;;;;;;149.65;86.95;;;;;11.20;95774.00;;;;8397571;28;20220;-73
2022/10/01 12:08:05;;;;;;;39.33;29.83;;;;;11.30;95776.00;;;;8397226;28;20216;-74
2022/10/01 12:12:42;;;;;;;5.53;3.60;;;;;11.40;95776.00;;;;8397615;28;20234;-70
2022/10/01 12:17:17;;;;;;;5.97;5.50;;;;;11.30;95777.00;;;;8386202;28;20243;-71
2022/10/01 12:21:51;;;;;;;13.40;12.05;;;;;11.40;95794.00;;;;8394412;28;20410;-68
2022/10/01 12:26:33;;;;;;;77.38;32.47;;;;;11.60;95815.00;;;;8396951;28;20218;-68
2022/10/01 12:31:08;;;;;;;419.63;161.57;;;;;11.70;95815.00;;;;8385851;28;20219;-69
2022/10/01 12:35:54;;;;;;;329.55;112.55;;;;;11.60;95821.00;;;;8397594;28;20233;-68
2022/10/01 12:40:30;;;;;;;241.68;85.20;;;;;11.60;95806.00;;;;8368519;28;20234;-68
2022/10/01 12:45:15;;;;;;;53.95;33.03;;;;;11.60;95814.00;;;;8397219;28;20223;-67
2022/10/01 12:49:50;;;;;;;74.60;33.38;;;;;11.70;95809.00;;;;8398364;28;20548;-67
2022/10/01 12:54:33;;;;;;;80.15;42.50;;;;;12.00;95818.00;;;;8384411;28;20645;-67
2022/10/01 12:59:05;;;;;;;97.95;60.75;;;;;12.00;95807.00;;;;8390324;28;20217;-67
2022/10/01 13:03:45;;;;;;;15.45;13.75;;;;;12.10;95805.00;;;;8384827;28;20676;-68
2022/10/01 13:08:33;;;;;;;4.78;4.38;;;;;12.30;95815.00;;;;8379906;28;20659;-71
2022/10/01 13:13:15;;;;;;;5.57;2.95;;;;;12.40;95809.00;;;;8393750;28;20285;-69
2022/10/01 13:17:48;;;;;;;6.07;5.47;;;;;12.70;95810.00;;;;8394439;28;20234;-70
2022/10/01 13:22:33;;;;;;;5.45;4.47;;;;;12.90;95814.00;;;;8360971;28;20304;-70
2022/10/01 13:27:04;;;;;;;32.70;29.35;;;;;13.20;95819.00;;;;8351040;28;20755;-69
2022/10/01 13:31:37;;;;;;;22.10;20.08;;;;;13.30;95814.00;;;;8360292;28;20231;-70
2022/10/01 13:36:12;;;;;;;5.35;3.70;;;;;13.40;95807.00;;;;8360013;28;20210;-69
2022/10/01 13:40:48;;;;;;;7.53;6.82;;;;;13.40;95818.00;;;;8359861;28;20230;-68
2022/10/01 13:45:33;;;;;;;4.15;3.80;;;;;13.30;95827.00;;;;8359598;28;20217;-68
2022/10/01 13:50:03;;;;;;;3.00;2.65;;;;;13.20;95824.00;;;;8354081;28;20605;-68
2022/10/01 13:54:38;;;;;;;4.32;3.92;;;;;13.10;95822.00;;;;8359914;28;20278;-68
2022/10/01 13:59:25;;;;;;;3.83;2.40;;;;;13.20;95834.00;;;;8358540;28;20215;-68
2022/10/01 14:03:54;;;;;;;5.13;3.20;;;;;13.30;95837.00;;;;8360481;28;20232;-67
2022/10/01 14:08:24;;;;;;;3.85;2.65;;;;;13.30;95857.00;;;;8360998;28;20600;-68
2022/10/01 14:16:54;;;;;;;3.63;2.20;;;;;12.90;95834.00;;;;8360550;28;20706;-67
2022/10/01 14:21:08;;;;;;;2.92;2.67;;;;;12.80;95845.00;;;;8381360;28;20227;-67
2022/10/01 14:25:39;;;;;;;3.20;2.90;;;;;12.80;95841.00;;;;8392698;28;20226;-68
2022/10/01 14:30:18;;;;;;;4.85;2.53;;;;;12.60;95847.00;;;;8391660;28;20211;-69
2022/10/01 14:34:58;;;;;;;4.43;2.90;;;;;12.50;95842.00;;;;8394046;28;20253;-68
2022/10/01 14:39:30;;;;;;;2.97;2.72;;;;;12.50;95840.00;;;;8393755;28;20672;-68
2022/10/01 14:43:34;;;;;;;6.25;4.22;;;;;12.40;95839.00;;;;8393317;28;20600;-67
2022/10/01 14:48:09;;;;;;;4.90;3.33;;;;;12.40;95832.00;;;;8392637;28;20219;-68
2022/10/01 14:52:20;;;;;;;5.05;3.50;;;;;12.50;95831.00;;;;8393152;28;20718;-68
2022/10/01 14:56:26;;;;;;;69.00;42.20;;;;;12.50;95828.00;;;;8393461;28;20230;-67
2022/10/01 15:00:59;;;;;;;1116.88;436.77;;;;;12.60;95835.00;;;;8394050;28;20227;-67
2022/10/01 15:05:37;;;;;;;54.50;31.50;;;;;12.70;95827.00;;;;8393423;28;20658;-67
2022/10/01 15:10:17;;;;;;;25.77;20.33;;;;;12.80;95825.00;;;;8386408;28;20228;-67
2022/10/01 15:14:54;;;;;;;4.93;3.40;;;;;12.80;95815.00;;;;8392410;28;20280;-67
2022/10/01 15:19:01;;;;;;;4.43;3.80;;;;;12.90;95821.00;;;;8400064;28;20217;-67
2022/10/01 15:23:36;;;;;;;6.05;3.75;;;;;12.90;95829.00;;;;8399206;28;20223;-66
2022/10/01 15:28:13;;;;;;;30.52;27.45;;;;;12.90;95830.00;;;;8398740;28;20233;-67
2022/10/01 15:32:44;;;;;;;7.80;7.07;;;;;12.90;95822.00;;;;8399522;28;20668;-67
2022/10/01 15:37:25;;;;;;;3.28;2.97;;;;;13.00;95832.00;;;;8397702;28;20267;-67
2022/10/01 15:42:01;;;;;;;7.75;6.38;;;;;13.00;95842.00;;;;8396201;28;20218;-67
2022/10/01 15:46:34;;;;;;;17.48;13.20;;;;;13.00;95837.00;;;;8398067;28;20249;-67
2022/10/01 15:51:13;;;;;;;19.27;15.00;;;;;13.00;95835.00;;;;8387405;28;20564;-67
2022/10/01 15:55:51;;;;;;;28.73;17.63;;;;;13.10;95843.00;;;;8387089;28;20224;-67
2022/10/01 16:00:25;;;;;;;5.72;5.05;;;;;13.10;95848.00;;;;8397602;28;20218;-66
2022/10/01 16:04:28;;;;;;;4.47;3.15;;;;;13.20;95848.00;;;;8384413;28;20219;-67
2022/10/01 16:08:34;;;;;;;3.47;2.22;;;;;13.20;95850.00;;;;8397221;28;20227;-67
2022/10/01 16:12:39;;;;;;;3.28;2.70;;;;;13.20;95849.00;;;;8386595;28;20607;-67
2022/10/01 16:17:21;;;;;;;6.15;4.72;;;;;13.20;95850.00;;;;8397486;28;20215;-67
2022/10/01 16:22:01;;;;;;;5.32;3.13;;;;;13.20;95861.00;;;;8396936;28;20219;-67
2022/10/01 16:26:06;;;;;;;3.03;2.72;;;;;13.20;95867.00;;;;8396356;28;20215;-68
2022/10/01 16:30:41;;;;;;;3.67;3.35;;;;;13.20;95874.00;;;;8394422;28;20227;-70
2022/10/01 16:34:44;;;;;;;2.67;2.47;;;;;13.20;95873.00;;;;8396771;28;20220;-69
2022/10/01 16:38:48;;;;;;;7.45;4.72;;;;;13.20;95876.00;;;;8386022;28;20279;-69
2022/10/01 16:42:52;;;;;;;6.90;4.05;;;;;13.20;95885.00;;;;8397688;28;20215;-69
2022/10/01 16:46:57;;;;;;;4.82;3.65;;;;;13.10;95884.00;;;;8397257;28;20223;-69
2022/10/01 16:51:00;;;;;;;3.92;2.80;;;;;13.20;95899.00;;;;8397429;28;20245;-69
2022/10/01 16:55:04;;;;;;;4.75;3.35;;;;;13.20;95885.00;;;;8396741;28;20226;-69
2022/10/01 16:59:38;;;;;;;5.35;3.25;;;;;13.20;95890.00;;;;8396890;28;20706;-69
2022/10/01 17:03:42;;;;;;;4.53;3.70;;;;;13.20;95903.00;;;;8395516;28;20231;-70
2022/10/01 17:08:16;;;;;;;4.63;3.25;;;;;13.10;95908.00;;;;8397135;28;20215;-70
2022/10/01 17:12:19;;;;;;;4.18;2.97;;;;;13.10;95906.00;;;;8395796;28;20246;-70
2022/10/01 17:16:56;;;;;;;2.90;2.70;;;;;13.10;95905.00;;;;8396709;28;20234;-70
2022/10/01 17:21:02;;;;;;;2.90;2.70;;;;;13.10;95916.00;;;;8396014;28;20216;-70
2022/10/01 17:25:37;;;;;;;3.92;2.92;;;;;13.10;95924.00;;;;8395380;28;20262;-70
2022/10/01 17:29:41;;;;;;;5.65;2.80;;;;;13.20;95928.00;;;;8396139;28;20215;-70
2022/10/01 17:33:44;;;;;;;4.88;2.83;;;;;13.20;95942.00;;;;8395376;28;20569;-70
2022/10/01 17:37:49;;;;;;;3.72;2.40;;;;;13.20;95937.00;;;;8394853;28;20633;-70
2022/10/01 17:41:52;;;;;;;3.95;2.40;;;;;13.20;95940.00;;;;8391627;28;20238;-69
2022/10/01 17:46:29;;;;;;;4.97;2.50;;;;;13.20;95952.00;;;;8394955;28;20238;-70
2022/10/01 17:51:07;;;;;;;3.63;2.33;;;;;13.10;95963.00;;;;8394716;28;20565;-69
2022/10/01 17:55:12;;;;;;;3.33;2.40;;;;;13.20;95977.00;;;;8394895;28;20660;-70
2022/10/01 17:59:45;;;;;;;5.10;2.50;;;;;13.20;95963.00;;;;8394882;28;20709;-70
2022/10/01 18:03:54;;;;;;;3.80;2.67;;;;;13.20;95983.00;;;;8394862;28;20233;-70
2022/10/01 18:08:25;;;;;;;2.33;2.13;;;;;13.30;95992.00;;;;8394405;28;20216;-70
2022/10/01 18:13:26;;;;;;;3.45;2.28;;;;;13.30;95998.00;;;;8394432;28;20241;-70
2022/10/01 18:17:31;;;;;;;2.47;2.28;;;;;13.30;95994.00;;;;8393985;28;20227;-70
2022/10/01 18:22:05;;;;;;;4.80;3.45;;;;;13.30;96002.00;;;;8393473;28;20560;-70
2022/10/01 18:26:16;;;;;;;2.17;2.00;;;;;13.30;96006.00;;;;8394999;28;20288;-70
2022/10/01 18:30:20;;;;;;;2.25;1.80;;;;;13.30;95995.00;;;;8393863;28;20227;-71
2022/10/01 18:34:56;;;;;;;2.10;2.00;;;;;13.30;96007.00;;;;8394434;28;20233;-71
2022/10/01 18:39:07;;;;;;;2.53;1.90;;;;;13.20;95999.00;;;;8393776;28;20657;-70
2022/10/01 18:43:38;;;;;;;2.00;1.90;;;;;13.10;96017.00;;;;8393833;28;20231;-69
2022/10/01 18:47:55;;;;;;;3.45;2.00;;;;;13.00;96022.00;;;;8393953;28;20227;-67
2022/10/01 18:52:27;;;;;;;2.92;1.60;;;;;12.80;96027.00;;;;8393117;28;20216;-67
2022/10/01 18:56:33;;;;;;;1.52;1.52;;;;;12.80;96033.00;;;;8393413;28;20652;-69
2022/10/01 19:01:11;;;;;;;2.10;1.88;;;;;12.70;96029.00;;;;8393632;28;20230;-70
2022/10/01 19:05:58;;;;;;;1.95;1.80;;;;;12.60;96021.00;;;;8394132;28;20599;-70
2022/10/01 19:10:12;;;;;;;8.52;2.00;;;;;12.60;96027.00;;;;8385842;28;20226;-70
2022/10/01 19:14:46;;;;;;;2.97;2.05;;;;;12.50;96026.00;;;;8393298;28;20644;-72
2022/10/01 19:19:02;;;;;;;1.60;1.50;;;;;12.50;96033.00;;;;8392473;28;20219;-72
2022/10/01 19:23:37;;;;;;;2.28;1.85;;;;;12.50;96026.00;;;;8393163;28;20219;-71
2022/10/01 19:28:02;;;;;;;1.90;1.80;;;;;12.50;96041.00;;;;8393372;28;20220;-70
2022/10/01 19:32:12;;;;;;;2.55;1.52;;;;;12.50;96055.00;;;;8392202;28;20238;-70
2022/10/01 19:36:43;;;;;;;1.90;1.80;;;;;12.50;96062.00;;;;8391829;28;20227;-69
2022/10/01 19:40:53;;;;;;;3.25;1.55;;;;;12.60;96069.00;;;;8382339;28;20664;-74
2022/10/01 19:45:03;;;;;;;2.10;1.58;;;;;12.50;96079.00;;;;8380697;28;20230;-71
2022/10/01 19:49:32;;;;;;;8.85;2.25;;;;;12.50;96084.00;;;;8391603;28;20234;-70
2022/10/01 19:53:37;;;;;;;4.05;1.98;;;;;12.60;96092.00;;;;8391462;28;20306;-70
2022/10/01 19:58:14;;;;;;;2.10;2.00;;;;;12.60;96095.00;;;;8392178;28;20274;-69
2022/10/01 20:02:48;;;;;;;2.58;1.90;;;;;12.60;96101.00;;;;8394178;28;20222;-70
2022/10/01 20:07:27;;;;;;;2.40;1.88;;;;;12.60;96116.00;;;;8398245;28;20234;-69
2022/10/01 20:11:51;;;;;;;2.55;1.90;;;;;12.60;96113.00;;;;8396677;28;20223;-68
2022/10/01 20:16:25;;;;;;;3.78;2.00;;;;;12.70;96123.00;;;;8398233;28;20250;-69
2022/10/01 20:20:33;;;;;;;1.75;1.60;;;;;12.70;96136.00;;;;8396933;28;20219;-68
2022/10/01 20:25:10;;;;;;;1.90;1.80;;;;;12.70;96146.00;;;;8398001;28;20227;-69
2022/10/01 20:29:46;;;;;;;1.77;1.70;;;;;12.70;96148.00;;;;8394128;28;20246;-68
2022/10/01 20:34:21;;;;;;;4.80;1.90;;;;;12.70;96160.00;;;;8397129;28;20645;-69
2022/10/01 20:38:55;;;;;;;2.50;1.95;;;;;12.80;96167.00;;;;8397021;28;20672;-69
2022/10/01 20:43:33;;;;;;;2.45;1.67;;;;;12.80;96175.00;;;;8397084;28;20226;-69
2022/10/01 20:48:06;;;;;;;1.95;1.73;;;;;12.80;96188.00;;;;8396350;28;20249;-69
2022/10/01 20:52:45;;;;;;;4.22;1.50;;;;;12.80;96202.00;;;;8397069;28;20592;-69
2022/10/01 20:57:24;;;;;;;1.75;1.60;;;;;12.90;96204.00;;;;8397622;28;20212;-69
2022/10/01 21:01:54;;;;;;;1.67;1.45;;;;;12.90;96223.00;;;;8385682;28;20668;-68
2022/10/01 21:06:35;;;;;;;3.35;1.92;;;;;12.90;96223.00;;;;8396198;28;20294;-69
2022/10/01 21:11:10;;;;;;;2.33;1.98;;;;;13.00;96229.00;;;;8396099;28;20215;-69
2022/10/01 21:15:51;;;;;;;1.80;1.40;;;;;13.00;96242.00;;;;8396101;28;20735;-68
2022/10/01 21:20:25;;;;;;;1.73;1.63;;;;;13.00;96251.00;;;;8389160;28;20227;-69
2022/10/01 21:25:03;;;;;;;4.38;1.58;;;;;13.00;96257.00;;;;8395617;28;20557;-69
2022/10/01 21:29:50;;;;;;;7.35;1.98;;;;;13.10;96253.00;;;;8396207;28;20232;-69
2022/10/01 21:34:13;;;;;;;3.80;1.85;;;;;13.10;96255.00;;;;8388011;28;20227;-69
2022/10/01 21:38:45;;;;;;;6.50;1.58;;;;;13.10;96254.00;;;;8394671;28;20229;-69
2022/10/01 21:43:34;;;;;;;2.35;1.70;;;;;13.10;96248.00;;;;8381216;28;20258;-69
2022/10/01 21:48:13;;;;;;;3.95;2.00;;;;;13.20;96264.00;;;;8385842;28;20246;-68
2022/10/01 21:52:42;;;;;;;3.38;1.90;;;;;13.20;96263.00;;;;8395171;28;20248;-69